createdAt,value
2022-09-28T17:18:18.866Z,45.40
2022-09-28T17:20:53.487Z,37.33
2022-09-28T17:25:50.002Z,28.70
2022-09-28T17:28:26.641Z,26.05
2022-09-28T17:30:54.047Z,21.35
2022-09-28T17:36:00.761Z,17.88
2022-09-28T17:38:35.638Z,15.85
2022-09-28T17:43:34.979Z,13.52
2022-09-28T17:46:04.106Z,14.40
2022-09-28T17:48:33.519Z,13.25
2022-09-28T17:53:30.596Z,12.77
2022-09-28T17:55:57.492Z,12.75
2022-09-28T17:58:26.481Z,14.45
2022-09-28T18:00:53.611Z,11.82
2022-09-28T18:03:22.638Z,10.70
2022-09-28T18:05:53.746Z,10.82
2022-09-28T18:08:21.807Z,10.10
2022-09-28T18:10:50.801Z,10.82
2022-09-28T18:13:17.697Z,9.77
2022-09-28T18:15:46.926Z,10.00
2022-09-28T18:18:13.906Z,9.40
2022-09-28T18:20:42.682Z,23.23
2022-09-28T18:23:11.810Z,66.43
2022-09-28T18:25:44.645Z,62.05
2022-09-28T18:28:12.950Z,53.28
2022-09-28T18:30:42.757Z,46.50
2022-09-28T18:33:11.277Z,38.78
2022-09-28T18:35:40.467Z,36.13
2022-09-28T18:38:07.587Z,31.33
2022-09-28T18:40:35.128Z,28.02
2022-09-28T18:43:03.358Z,29.15
2022-09-28T18:45:31.323Z,28.42
2022-09-28T18:47:59.949Z,25.83
2022-09-28T18:50:30.458Z,23.85
2022-09-28T18:53:11.538Z,23.88
2022-09-28T18:55:42.540Z,22.20
2022-09-28T18:58:10.610Z,20.67
2022-09-28T19:00:41.307Z,20.52
2022-09-28T19:03:13.183Z,19.60
2022-09-28T19:05:43.493Z,18.10
2022-09-28T19:08:10.458Z,18.00
2022-09-28T19:10:38.696Z,18.52
2022-09-28T19:13:06.305Z,17.17
2022-09-28T19:15:34.716Z,17.02
2022-09-28T19:18:01.608Z,15.00
2022-09-28T19:20:28.471Z,15.88
2022-09-28T19:22:55.476Z,15.32
2022-09-28T19:25:22.239Z,15.82
2022-09-28T19:27:49.704Z,14.10
2022-09-28T19:30:16.520Z,13.77
2022-09-28T19:32:43.425Z,13.02
2022-09-28T19:35:10.192Z,13.40
2022-09-28T19:37:38.736Z,12.55
2022-09-28T19:40:06.464Z,13.75
2022-09-28T19:42:35.253Z,12.15
2022-09-28T19:45:02.307Z,12.20
2022-09-28T19:47:29.079Z,12.02
2022-09-28T19:49:55.860Z,11.38
2022-09-28T19:52:22.601Z,11.35
2022-09-28T19:55:00.934Z,11.13
2022-09-28T19:57:30.533Z,11.00
2022-09-28T20:00:02.043Z,11.63
2022-09-28T20:02:29.830Z,10.73
2022-09-28T20:04:56.651Z,10.98
2022-09-28T20:07:23.533Z,10.55
2022-09-28T20:09:50.275Z,10.50
2022-09-28T20:12:16.993Z,10.68
2022-09-28T20:14:43.691Z,10.65
2022-09-28T20:17:10.474Z,94.93
2022-09-28T20:19:37.199Z,96.63
2022-09-28T20:22:04.003Z,72.53
2022-09-28T20:24:31.594Z,61.22
2022-09-28T20:26:58.549Z,53.35
2022-09-28T20:29:25.504Z,44.85
2022-09-28T20:31:52.555Z,41.45
2022-09-28T20:34:19.399Z,38.45
2022-09-28T20:36:46.203Z,36.83
2022-09-28T20:39:13.398Z,35.20
2022-09-28T20:41:40.194Z,33.53
2022-09-28T20:44:07.322Z,30.92
2022-09-28T20:46:38.019Z,30.55
2022-09-28T20:49:05.342Z,30.52
2022-09-28T20:51:32.551Z,28.63
2022-09-28T20:53:59.550Z,28.90
2022-09-28T20:56:31.546Z,25.50
2022-09-28T20:58:58.303Z,26.50
2022-09-28T21:01:30.422Z,24.88
2022-09-28T21:04:02.029Z,24.38
2022-09-28T21:06:33.966Z,25.02
2022-09-28T21:09:01.137Z,22.73
2022-09-28T21:11:29.489Z,23.23
2022-09-28T21:14:01.723Z,22.50
2022-09-28T21:16:30.239Z,21.75
2022-09-28T21:18:57.481Z,21.50
2022-09-28T21:21:25.134Z,21.27
2022-09-28T21:23:55.917Z,19.77
2022-09-28T21:26:25.007Z,19.65
2022-09-28T21:29:03.385Z,18.65
2022-09-28T21:31:51.448Z,17.92
2022-09-28T21:34:20.329Z,103.05
2022-09-28T21:36:48.584Z,127.90
2022-09-28T21:39:15.414Z,109.90
2022-09-28T21:41:42.112Z,90.07
2022-09-28T21:44:08.909Z,77.72
2022-09-28T21:46:37.293Z,68.00
2022-09-28T21:49:06.302Z,62.78
2022-09-28T21:51:34.215Z,57.83
2022-09-28T21:54:01.056Z,56.58
2022-09-28T21:56:27.804Z,53.75
2022-09-28T21:58:54.511Z,65.75
2022-09-28T22:01:23.453Z,78.32
2022-09-28T22:03:52.372Z,72.47
2022-09-28T22:06:21.448Z,69.03
2022-09-28T22:08:49.416Z,63.63
2022-09-28T22:11:18.789Z,60.38
2022-09-28T22:13:53.661Z,55.83
2022-09-28T22:16:22.299Z,53.95
2022-09-28T22:18:49.633Z,52.13
2022-09-28T22:21:24.885Z,50.88
2022-09-28T22:23:51.687Z,52.25
2022-09-28T22:26:25.480Z,48.45
2022-09-28T22:29:04.685Z,44.38
2022-09-28T22:31:34.336Z,46.85
2022-09-28T22:36:28.665Z,42.83
2022-09-28T22:38:56.184Z,41.60
2022-09-28T22:41:24.357Z,39.28
2022-09-28T22:43:52.545Z,38.53
2022-09-28T22:46:27.400Z,37.22
2022-09-28T22:48:56.151Z,37.92
2022-09-28T22:51:24.131Z,35.92
2022-09-28T22:53:50.843Z,36.08
2022-09-28T22:56:19.164Z,34.72
2022-09-28T22:58:46.596Z,34.33
2022-09-28T23:01:21.638Z,34.20
2022-09-28T23:03:48.754Z,33.67
2022-09-28T23:06:17.553Z,32.53
2022-09-28T23:08:45.621Z,31.67
2022-09-28T23:11:12.387Z,31.85
2022-09-28T23:13:39.194Z,31.05
2022-09-28T23:16:08.260Z,29.17
2022-09-28T23:18:37.077Z,29.35
2022-09-28T23:21:06.140Z,28.93
2022-09-28T23:23:33.728Z,29.45
2022-09-28T23:26:00.972Z,28.92
2022-09-28T23:28:27.749Z,26.70
2022-09-28T23:30:54.701Z,27.52
2022-09-28T23:33:21.864Z,26.35
2022-09-28T23:35:49.297Z,26.17
2022-09-28T23:38:20.655Z,26.52
2022-09-28T23:40:47.987Z,24.85
2022-09-28T23:43:15.324Z,25.83
2022-09-28T23:45:45.546Z,24.52
2022-09-28T23:48:14.855Z,25.52
2022-09-28T23:50:44.803Z,23.60
2022-09-28T23:53:14.181Z,23.90
2022-09-28T23:55:42.581Z,24.20
2022-09-28T23:58:10.007Z,24.17
